METAR AND TAF INFORMATION
METAR FOR SVJC
ADDS - METARS form results

(1705 UTC 11 July 2020)
Data provider http://aviationweather.gov/metar/data/
 
Forecast for: SVJC (PARAGUANA/JOSEFA, VE)
Text: TAF SVJC 111600Z 1118/1218 11008KT 9999 FEW016 TX32/19Z TN24/09Z
Forecast period: 1800 UTC 11 July 2020 to 1800 UTC 12 July 2020
Forecast type: FROM: standard forecast or significant change
Winds: from the ESE (110 degrees) at 9 MPH (8 knots; 4.1 m/s)
Visibility: 6 or more miles 10+ km)
Ceiling: at least 12,000 feet AGL
Clouds: few clouds at 1600 feet AGL
Weather: no significant weather forecast for this period
Text: BECMG 1118/1122 09006KT SCT016
Forecast period: 1800 UTC 11 July 2020 to 1800 UTC 12 July 2020
Forecast type: BECOMING: Conditions expected to become as follows by 2200 UTC 11 July 2020
Winds: from the E (90 degrees) at 7 MPH (6 knots; 3.1 m/s)
Visibility: 6 or more miles 10+ km)
Ceiling: at least 12,000 feet AGL
Clouds: scattered clouds at 1600 feet AGL
Weather: no significant weather forecast for this period

 AIRPORT MAP

 RUNWAY INFORMATION
Runway 09 Runway length 9186 ft Runway width 148 ft
Runway elevation 75 ft Runway displaced threshold 0 ft Runway heading 85
Runway 27 Runway length 9186 ft Runway width 148 ft
Runway elevation 75 ft Runway displaced threshold 0 ft Runway heading 265

 AIRPORT FREQUENCIES
Type TWR Name TWR Frequency 118.45 MHZ

 AIRPORT NEAR NAVIGATION AIDS
Type VOR-DME Name Paraguana Frequency 113600 KHZ
Type NDB Name Paraguana Frequency 385 KHZ